Time;durP1;ratioP1;P1;durP2;ratioP2;P2;SDS_P1;SDS_P2;PMS_P1;PMS_P2;Temp;Humidity;BMP_temperature;BMP_pressure;BME280_temperature;BME280_humidity;BME280_pressure;Samples;Min_cycle;Max_cycle;Signal;HPM_P1;HPM_P2
2024/04/08 00:01:09;;;;;;;2.07;1.57;;;;;;;16.83;85.03;100056.63;5068147;28;20235;-79
2024/04/08 00:03:34;;;;;;;4.07;2.03;;;;;;;16.63;87.02;100030.38;5068536;28;20204;-79
2024/04/08 00:06:01;;;;;;;2.20;1.90;;;;;;;16.64;86.91;100016.28;5075629;28;20273;-78
2024/04/08 00:08:26;;;;;;;2.77;1.70;;;;;;;16.89;86.17;100029.13;5067847;28;20209;-79
2024/04/08 00:10:53;;;;;;;2.83;1.77;;;;;;;17.10;84.66;100053.50;5059061;28;20211;-79
2024/04/08 00:13:19;;;;;;;4.80;2.20;;;;;;;17.12;84.35;100070.09;5056218;28;20201;-77
2024/04/08 00:15:46;;;;;;;2.07;1.87;;;;;;;17.34;83.50;100085.63;5056141;28;20294;-78
2024/04/08 00:18:13;;;;;;;2.93;1.77;;;;;;;17.33;82.63;100110.34;5064737;28;20267;-78
2024/04/08 00:20:39;;;;;;;3.27;1.73;;;;;;;17.29;82.55;100148.34;5064643;28;20224;-79
2024/04/08 00:23:04;;;;;;;2.33;1.70;;;;;;;17.45;82.00;100148.41;5074570;28;20532;-79
2024/04/08 00:25:32;;;;;;;3.43;1.90;;;;;;;17.53;80.97;100166.50;5075374;28;20732;-80
2024/04/08 00:27:58;;;;;;;3.27;2.00;;;;;;;17.58;80.78;100191.72;5059230;28;20212;-79
2024/04/08 00:30:26;;;;;;;3.47;2.40;;;;;;;17.38;81.97;100189.25;5060766;28;20253;-80
2024/04/08 00:32:52;;;;;;;4.07;2.00;;;;;;;17.56;81.63;100169.84;5066882;28;20233;-79
2024/04/08 00:35:18;;;;;;;3.90;1.80;;;;;;;17.62;80.94;100184.47;5067644;28;20691;-79
2024/04/08 00:37:43;;;;;;;3.10;1.60;;;;;;;17.66;81.30;100189.53;5077462;28;20212;-79
2024/04/08 00:40:10;;;;;;;3.37;1.93;;;;;;;17.71;81.95;100176.06;5057695;28;20201;-79
2024/04/08 00:42:36;;;;;;;4.70;2.07;;;;;;;17.75;82.11;100174.13;5057287;28;20561;-79
2024/04/08 00:45:02;;;;;;;2.57;1.70;;;;;;;17.72;81.72;100156.69;5059040;28;20320;-80
2024/04/08 00:47:29;;;;;;;3.03;1.80;;;;;;;17.69;82.75;100140.16;5077740;28;20201;-79
2024/04/08 00:49:56;;;;;;;3.70;2.00;;;;;;;17.72;81.75;100146.13;5060329;28;20231;-80
2024/04/08 00:52:21;;;;;;;2.23;1.40;;;;;;;17.84;81.17;100152.56;5057447;28;20648;-78
2024/04/08 00:54:48;;;;;;;3.43;1.93;;;;;;;17.82;81.76;100149.13;5072580;28;20227;-79
2024/04/08 00:57:15;;;;;;;3.63;1.83;;;;;;;17.84;82.53;100134.09;5057581;28;20244;-80
2024/04/08 00:59:41;;;;;;;2.17;1.70;;;;;;;17.79;82.42;100118.44;5056476;28;20569;-78
2024/04/08 01:02:07;;;;;;;3.10;1.70;;;;;;;17.82;81.80;100126.19;5056559;28;20267;-78
2024/04/08 01:04:35;;;;;;;3.27;2.23;;;;;;;17.77;82.54;100119.47;5057269;28;20216;-79
2024/04/08 01:07:01;;;;;;;2.43;1.70;;;;;;;17.72;83.36;100100.38;5074733;28;20216;-80
2024/04/08 01:09:28;;;;;;;3.93;1.80;;;;;;;17.70;83.47;100084.63;5078035;28;20212;-79
2024/04/08 01:11:54;;;;;;;2.87;1.80;;;;;;;17.69;83.71;100085.56;5076202;28;20848;-79
2024/04/08 01:14:21;;;;;;;2.53;1.73;;;;;;;17.70;83.55;100089.91;5075903;28;20221;-78
2024/04/08 01:16:46;;;;;;;3.37;2.00;;;;;;;17.67;83.93;100083.00;5076256;28;20239;-79
2024/04/08 01:19:18;;;;;;;3.40;1.73;;;;;;;17.63;84.23;100080.59;5056735;28;20238;-79
2024/04/08 01:21:45;;;;;;;3.23;1.90;;;;;;;17.66;83.14;100088.38;5056133;28;20284;-80
2024/04/08 01:24:14;;;;;;;5.30;2.50;;;;;;;17.64;83.29;100101.66;5057437;28;20208;-78
2024/04/08 01:26:40;;;;;;;5.23;2.50;;;;;;;17.57;83.89;100094.97;5069928;28;20684;-80
2024/04/08 01:29:06;;;;;;;4.87;1.90;;;;;;;17.52;83.53;100096.16;5057352;28;20217;-80
2024/04/08 01:31:31;;;;;;;3.03;1.90;;;;;;;17.50;83.37;100114.72;5076060;28;20201;-80
2024/04/08 01:33:58;;;;;;;2.63;1.77;;;;;;;17.51;83.45;100126.97;5075918;28;20280;-80
2024/04/08 01:36:24;;;;;;;3.30;2.90;;;;;;;17.55;83.09;100144.34;5075768;28;20711;-78
2024/04/08 01:38:50;;;;;;;2.50;1.50;;;;;;;17.57;82.73;100154.84;5076938;28;20257;-80
2024/04/08 01:41:17;;;;;;;5.50;1.93;;;;;;;17.59;83.39;100151.19;5076294;28;20211;-80
2024/04/08 01:43:43;;;;;;;3.40;2.10;;;;;;;17.56;83.71;100143.44;5063397;28;20205;-80
2024/04/08 01:46:10;;;;;;;3.70;2.03;;;;;;;17.64;82.97;100132.44;5075578;28;20605;-80
2024/04/08 01:48:36;;;;;;;3.77;1.97;;;;;;;17.60;82.93;100131.78;5066378;28;20205;-80
2024/04/08 01:51:01;;;;;;;3.77;2.20;;;;;;;17.55;82.76;100136.44;5059786;28;20239;-80
2024/04/08 01:53:28;;;;;;;6.93;2.80;;;;;;;17.50;82.55;100134.97;5059889;28;20205;-80
2024/04/08 01:55:54;;;;;;;5.03;2.43;;;;;;;17.48;83.05;100121.84;5059607;28;20249;-80
2024/04/08 01:58:22;;;;;;;3.93;2.00;;;;;;;17.46;83.61;100108.75;5067759;28;20633;-80
2024/04/08 02:00:47;;;;;;;3.50;2.20;;;;;;;17.44;84.12;100108.00;5059034;28;20201;-79
2024/04/08 02:03:14;;;;;;;3.53;2.23;;;;;;;17.43;83.76;100126.53;5059624;28;20205;-81
2024/04/08 02:05:39;;;;;;;3.80;2.23;;;;;;;17.47;83.64;100144.75;5058952;28;20217;-80
2024/04/08 02:08:06;;;;;;;3.57;2.30;;;;;;;17.54;83.22;100166.41;5059678;28;20262;-80
2024/04/08 02:10:31;;;;;;;6.50;2.70;;;;;;;17.46;83.10;100185.28;5058801;28;20251;-80
2024/04/08 02:12:58;;;;;;;3.97;2.47;;;;;;;17.22;85.10;100179.50;5068188;28;20715;-80
2024/04/08 02:15:24;;;;;;;3.70;3.00;;;;;;;16.88;86.99;100146.03;5063122;28;20233;-80
2024/04/08 02:17:51;;;;;;;3.73;2.17;;;;;;;17.04;87.17;100117.94;5072131;28;20212;-80
2024/04/08 02:20:17;;;;;;;3.27;2.20;;;;;;;17.19;86.42;100123.41;5068911;28;20236;-80
2024/04/08 02:22:43;;;;;;;4.43;2.63;;;;;;;16.94;87.42;100152.78;5060051;28;20204;-80
2024/04/08 02:25:08;;;;;;;3.70;2.57;;;;;;;16.12;93.04;100098.75;5059131;28;20271;-77
2024/04/08 02:27:35;;;;;;;3.10;2.13;;;;;;;15.87;97.19;100015.66;5065344;28;20216;-80
2024/04/08 02:30:00;;;;;;;2.50;2.30;;;;;;;16.07;97.04;99967.31;5071682;28;20209;-79
2024/04/08 02:32:28;;;;;;;4.77;2.77;;;;;;;16.32;95.29;99996.84;5060164;28;20204;-80
2024/04/08 02:34:53;;;;;;;3.50;2.73;;;;;;;15.96;98.31;99982.78;5067003;28;20228;-80
2024/04/08 02:37:20;;;;;;;4.77;2.63;;;;;;;15.80;100.00;99961.63;5070252;28;20671;-80
2024/04/08 02:39:45;;;;;;;3.20;2.43;;;;;;;15.78;100.00;99966.09;5066230;28;20215;-80
2024/04/08 02:42:12;;;;;;;3.37;2.70;;;;;;;15.72;100.00;99952.34;5081682;28;20265;-81
2024/04/08 02:44:37;;;;;;;2.40;2.20;;;;;;;15.93;100.00;99956.59;5076298;28;20223;-80
2024/04/08 02:47:04;;;;;;;3.00;2.03;;;;;;;16.23;98.49;99975.31;5060768;28;20241;-77
2024/04/08 02:49:32;;;;;;;3.00;2.10;;;;;;;16.46;96.36;100002.28;5070222;28;20201;-78
2024/04/08 02:51:59;;;;;;;3.27;2.40;;;;;;;16.62;94.84;100037.44;5078702;28;20234;-79
2024/04/08 02:54:24;;;;;;;2.97;2.53;;;;;;;16.75;93.35;100071.97;5060137;28;20292;-79
2024/04/08 02:56:50;;;;;;;2.87;2.30;;;;;;;16.83;91.46;100088.28;5062026;28;20204;-77
2024/04/08 02:59:16;;;;;;;3.80;2.23;;;;;;;16.94;90.18;100086.88;5058469;28;20718;-80
2024/04/08 03:01:42;;;;;;;3.63;2.37;;;;;;;17.01;89.93;100085.63;5072435;28;20209;-79
2024/04/08 03:04:08;;;;;;;5.27;2.50;;;;;;;17.01;90.18;100075.09;5057414;28;20198;-78
2024/04/08 03:06:36;;;;;;;4.57;2.73;;;;;;;17.04;89.24;100074.91;5057696;28;20228;-79
2024/04/08 03:09:04;;;;;;;3.67;3.00;;;;;;;17.06;88.82;100071.25;5057524;28;20201;-79
2024/04/08 03:11:30;;;;;;;4.10;2.33;;;;;;;17.10;88.59;100105.38;5069247;28;20200;-79
2024/04/08 03:13:56;;;;;;;3.93;2.50;;;;;;;17.11;88.52;100115.03;5077422;28;20216;-79
2024/04/08 03:16:22;;;;;;;3.73;2.63;;;;;;;17.09;88.07;100109.81;5076932;28;20297;-79
2024/04/08 03:18:50;;;;;;;2.60;2.20;;;;;;;17.06;88.17;100096.78;5071605;28;20209;-79
2024/04/08 03:21:16;;;;;;;3.83;2.77;;;;;;;17.09;87.27;100091.38;5057455;28;20209;-78
2024/04/08 03:23:43;;;;;;;5.47;3.00;;;;;;;17.06;87.12;100084.44;5062488;28;20209;-79
2024/04/08 03:26:12;;;;;;;5.23;2.70;;;;;;;17.05;87.64;100076.63;5059262;28;20257;-80
2024/04/08 03:28:38;;;;;;;3.20;2.90;;;;;;;17.01;87.37;100080.34;5057385;28;20201;-79
2024/04/08 03:31:06;;;;;;;2.67;2.20;;;;;;;17.02;87.08;100085.53;5056766;28;20300;-77
2024/04/08 03:33:33;;;;;;;5.83;2.53;;;;;;;17.04;86.30;100102.13;5067032;28;20208;-76
2024/04/08 03:36:00;;;;;;;4.23;2.20;;;;;;;16.98;86.76;100105.06;5061221;28;20236;-80
2024/04/08 03:38:26;;;;;;;2.83;2.40;;;;;;;16.99;86.78;100100.69;5067877;28;20212;-78
2024/04/08 03:40:59;;;;;;;2.53;2.20;;;;;;;16.92;87.31;100091.38;5061201;28;20682;-78
2024/04/08 03:43:26;;;;;;;3.93;2.10;;;;;;;16.85;87.55;100091.69;5057549;28;20288;-78
2024/04/08 03:45:52;;;;;;;5.67;2.27;;;;;;;16.85;87.71;100080.28;5056793;28;20711;-77
2024/04/08 03:48:19;;;;;;;4.07;2.40;;;;;;;16.86;87.71;100081.97;5056370;28;20239;-78
2024/04/08 03:50:44;;;;;;;3.77;2.43;;;;;;;16.80;87.48;100077.84;5056261;28;20204;-79
2024/04/08 03:53:10;;;;;;;2.60;2.20;;;;;;;16.88;86.90;100080.13;5056143;28;20726;-80
2024/04/08 03:55:36;;;;;;;3.30;2.20;;;;;;;16.85;87.16;100098.75;5068171;28;20231;-78
2024/04/08 03:58:04;;;;;;;3.07;1.70;;;;;;;16.83;87.59;100101.44;5060117;28;20209;-77
2024/04/08 04:00:30;;;;;;;4.33;2.03;;;;;;;16.73;88.03;100086.13;5067099;28;20231;-79
2024/04/08 04:02:56;;;;;;;5.97;2.50;;;;;;;16.72;88.02;100077.38;5068220;28;20660;-79
2024/04/08 04:05:22;;;;;;;3.30;2.40;;;;;;;16.75;88.05;100079.00;5054755;28;20228;-79
2024/04/08 04:07:49;;;;;;;3.43;2.60;;;;;;;16.73;88.22;100084.38;5053418;28;20555;-78
2024/04/08 04:10:17;;;;;;;2.53;1.90;;;;;;;16.71;88.19;100075.69;5055530;28;20295;-78
2024/04/08 04:12:44;;;;;;;2.97;2.00;;;;;;;16.70;88.22;100067.84;5075712;28;20594;-79
2024/04/08 04:15:12;;;;;;;3.87;2.40;;;;;;;16.66;88.83;100056.59;5073507;28;20577;-78
2024/04/08 04:17:39;;;;;;;2.67;2.40;;;;;;;16.64;88.99;100043.50;5062620;28;20209;-79
2024/04/08 04:20:08;;;;;;;3.37;2.27;;;;;;;16.70;88.35;100033.59;5061887;28;20216;-79
2024/04/08 04:22:34;;;;;;;7.43;2.43;;;;;;;16.58;89.53;100032.41;5062761;28;20625;-78
2024/04/08 04:25:00;;;;;;;3.50;2.37;;;;;;;16.60;89.95;100026.13;5053272;28;20719;-78
2024/04/08 04:27:26;;;;;;;3.50;2.37;;;;;;;16.58;89.91;100027.16;5054585;28;20209;-79
2024/04/08 04:29:52;;;;;;;5.87;2.17;;;;;;;16.60;89.51;100030.56;5069760;28;20203;-79
2024/04/08 04:32:19;;;;;;;3.57;2.43;;;;;;;16.61;89.08;100032.25;5056821;28;20208;-78
2024/04/08 04:34:45;;;;;;;3.37;2.47;;;;;;;16.60;89.59;100041.09;5058956;28;20232;-79
2024/04/08 04:37:11;;;;;;;3.63;2.40;;;;;;;16.63;89.59;100049.72;5075583;28;20283;-78
2024/04/08 04:39:36;;;;;;;3.87;2.37;;;;;;;16.67;89.17;100066.22;5062330;28;20208;-78
2024/04/08 04:42:03;;;;;;;2.20;2.00;;;;;;;16.66;89.27;100080.31;5068854;28;20273;-80
2024/04/08 04:44:29;;;;;;;3.70;2.40;;;;;;;16.65;89.12;100079.47;5057681;28;20208;-80
2024/04/08 04:46:55;;;;;;;2.77;2.50;;;;;;;16.65;89.23;100084.75;5068236;28;20196;-79
2024/04/08 04:49:22;;;;;;;3.87;2.63;;;;;;;16.63;89.37;100083.09;5062737;28;20757;-79
2024/04/08 04:51:48;;;;;;;4.77;2.77;;;;;;;16.57;89.52;100068.47;5060414;28;20217;-78
2024/04/08 04:54:14;;;;;;;2.83;2.63;;;;;;;16.55;89.84;100051.88;5058027;28;20261;-78
2024/04/08 04:56:40;;;;;;;3.90;2.33;;;;;;;16.55;89.88;100045.72;5057762;28;20216;-78
2024/04/08 04:59:05;;;;;;;2.83;2.30;;;;;;;16.51;90.34;100036.28;5058602;28;20205;-79
2024/04/08 05:01:32;;;;;;;3.50;2.93;;;;;;;16.45;90.59;100019.88;5054900;28;20720;-79
2024/04/08 05:03:57;;;;;;;3.30;2.67;;;;;;;16.55;89.30;100000.94;5054569;28;20216;-79
2024/04/08 05:06:25;;;;;;;4.93;2.90;;;;;;;16.55;89.42;100003.56;5055575;28;20287;-79
2024/04/08 05:08:50;;;;;;;5.50;3.30;;;;;;;16.55;89.20;100000.94;5059815;28;20253;-79
2024/04/08 05:11:16;;;;;;;4.10;3.60;;;;;;;16.53;89.47;100000.16;5062088;28;20208;-80
2024/04/08 05:13:42;;;;;;;5.97;3.83;;;;;;;16.51;89.45;100000.28;5054770;28;20230;-78
2024/04/08 05:16:10;;;;;;;3.87;3.43;;;;;;;16.50;89.52;99998.56;5070062;28;20239;-78
2024/04/08 05:18:36;;;;;;;4.30;3.37;;;;;;;16.45;90.07;99977.72;5057087;28;20207;-79
2024/04/08 05:21:03;;;;;;;6.40;3.50;;;;;;;16.45;89.90;99966.31;5064408;28;20228;-80
2024/04/08 05:23:30;;;;;;;3.17;2.87;;;;;;;16.39;89.89;99972.75;5056980;28;20216;-80
2024/04/08 05:25:57;;;;;;;4.50;3.00;;;;;;;16.38;90.36;99973.69;5056736;28;20236;-80
2024/04/08 05:28:23;;;;;;;3.57;2.47;;;;;;;16.39;89.55;99970.13;5073716;28;20670;-80
2024/04/08 05:30:50;;;;;;;4.33;2.77;;;;;;;16.37;89.67;99982.53;5058055;28;20209;-78
2024/04/08 05:33:16;;;;;;;2.80;2.53;;;;;;;16.38;89.20;99976.31;5058738;28;20680;-81
2024/04/08 05:35:44;;;;;;;4.23;2.90;;;;;;;16.41;89.14;99977.94;5070138;28;20257;-79
2024/04/08 05:38:09;;;;;;;3.53;2.40;;;;;;;16.34;89.22;99968.66;5061636;28;20270;-82
2024/04/08 05:40:38;;;;;;;3.57;2.73;;;;;;;16.37;89.45;99955.31;5056669;28;20219;-80
2024/04/08 05:43:03;;;;;;;3.03;2.73;;;;;;;16.37;89.68;99950.03;5057631;28;20235;-81
2024/04/08 05:45:30;;;;;;;8.87;2.60;;;;;;;16.36;89.83;99933.38;5057542;28;20699;-80
2024/04/08 05:47:55;;;;;;;2.60;2.40;;;;;;;16.46;88.46;99947.78;5057573;28;20275;-80
2024/04/08 05:50:23;;;;;;;5.50;2.17;;;;;;;16.53;87.46;99963.28;5067567;28;20678;-79
2024/04/08 05:52:48;;;;;;;3.17;2.03;;;;;;;16.56;87.50;99965.78;5074461;28;20232;-80
2024/04/08 05:55:15;;;;;;;3.27;1.73;;;;;;;16.55;87.44;99949.13;5057768;28;20693;-80
2024/04/08 05:57:42;;;;;;;2.83;2.30;;;;;;;16.51;87.29;99955.47;5067491;28;20208;-80
2024/04/08 06:00:10;;;;;;;1.83;1.73;;;;;;;16.50;87.62;99964.31;5058749;28;20219;-80
2024/04/08 06:02:35;;;;;;;3.03;2.00;;;;;;;16.47;87.75;99956.53;5058561;28;20240;-81
2024/04/08 06:05:02;;;;;;;3.23;2.13;;;;;;;16.46;88.02;99949.59;5057996;28;20232;-79
2024/04/08 06:07:28;;;;;;;3.80;2.30;;;;;;;16.45;88.45;99946.09;5057551;28;20213;-81
2024/04/08 06:09:54;;;;;;;2.87;1.70;;;;;;;16.47;87.86;99952.16;5058452;28;20209;-78
2024/04/08 06:12:20;;;;;;;4.43;2.00;;;;;;;16.41;88.06;99963.00;5067512;28;20311;-82
2024/04/08 06:14:48;;;;;;;3.33;2.07;;;;;;;16.47;87.42;99964.44;5077132;28;20254;-82
2024/04/08 06:17:14;;;;;;;2.60;2.40;;;;;;;16.48;87.53;99976.69;5069536;28;20208;-81
2024/04/08 06:19:40;;;;;;;3.57;2.53;;;;;;;16.45;87.98;99980.34;5058019;28;20210;-79
2024/04/08 06:22:05;;;;;;;5.00;1.90;;;;;;;16.41;88.82;99973.53;5057795;28;20208;-79
2024/04/08 06:24:32;;;;;;;2.20;1.90;;;;;;;16.44;88.90;99956.72;5057427;28;20249;-82
2024/04/08 06:26:57;;;;;;;5.17;2.60;;;;;;;16.47;88.92;99952.16;5057458;28;20216;-79
2024/04/08 06:29:23;;;;;;;2.80;2.10;;;;;;;16.54;89.16;99949.19;5056180;28;20217;-80
2024/04/08 06:31:50;;;;;;;4.30;1.83;;;;;;;16.54;89.09;99936.84;5058836;28;20250;-80
2024/04/08 06:34:16;;;;;;;3.60;1.97;;;;;;;16.61;87.88;99943.53;5058282;28;20243;-81
2024/04/08 06:36:43;;;;;;;2.27;1.93;;;;;;;16.63;88.26;99968.00;5066780;28;20228;-80
2024/04/08 06:39:09;;;;;;;2.30;2.10;;;;;;;16.67;87.85;99974.84;5079886;28;20208;-81
2024/04/08 06:41:36;;;;;;;3.13;2.47;;;;;;;16.71;87.55;99982.56;5079036;28;20212;-80
2024/04/08 06:44:02;;;;;;;3.47;2.27;;;;;;;16.72;87.37;99992.19;5079129;28;20208;-79
2024/04/08 06:46:28;;;;;;;1.93;1.60;;;;;;;16.71;87.69;99986.06;5079108;28;20270;-80
2024/04/08 06:48:56;;;;;;;3.43;1.97;;;;;;;16.74;88.39;99979.78;5079103;28;20204;-80
2024/04/08 06:51:22;;;;;;;3.90;2.00;;;;;;;16.71;89.36;99958.84;5079061;28;20208;-80
2024/04/08 06:53:49;;;;;;;4.30;2.40;;;;;;;16.74;88.90;99970.09;5078939;28;20246;-81
2024/04/08 06:56:14;;;;;;;4.50;2.17;;;;;;;16.80;89.11;99971.56;5078074;28;20236;-81
2024/04/08 06:58:41;;;;;;;4.23;2.60;;;;;;;16.79;88.53;99985.69;5079613;28;20212;-80
2024/04/08 07:01:07;;;;;;;2.53;1.90;;;;;;;16.81;87.98;99997.88;5078610;28;20670;-80
2024/04/08 07:03:33;;;;;;;3.30;2.17;;;;;;;16.78;88.27;99997.13;5078985;28;20211;-81
2024/04/08 07:06:00;;;;;;;3.17;1.93;;;;;;;16.81;87.92;100007.53;5078982;28;20245;-80
2024/04/08 07:08:26;;;;;;;3.60;2.43;;;;;;;16.85;87.47;100015.22;5080087;28;20207;-80
2024/04/08 07:10:52;;;;;;;3.63;2.10;;;;;;;16.81;88.06;100020.72;5079901;28;20626;-81
2024/04/08 07:13:18;;;;;;;3.13;1.80;;;;;;;16.86;87.52;100026.63;5080022;28;20209;-81
2024/04/08 07:15:52;;;;;;;3.57;2.07;;;;;;;16.89;87.16;100031.75;5080431;28;20232;-81
2024/04/08 07:18:18;;;;;;;5.07;2.17;;;;;;;16.93;87.57;100027.19;5080096;28;20243;-82
2024/04/08 07:20:43;;;;;;;3.03;2.10;;;;;;;16.93;87.00;100027.19;5079367;28;20215;-82
2024/04/08 07:23:11;;;;;;;2.90;1.80;;;;;;;16.94;86.97;100023.59;5079468;28;20230;-82
2024/04/08 07:25:37;;;;;;;2.80;2.00;;;;;;;16.96;86.50;100033.13;5078844;28;20247;-80
2024/04/08 07:28:03;;;;;;;5.10;2.77;;;;;;;16.99;86.34;100042.66;5080073;28;20212;-82
2024/04/08 07:30:29;;;;;;;4.40;2.60;;;;;;;17.04;86.26;100051.19;5080025;28;20238;-79
2024/04/08 07:32:57;;;;;;;4.90;3.57;;;;;;;17.11;86.58;100043.81;5078989;28;20211;-82
2024/04/08 07:35:22;;;;;;;4.53;4.13;;;;;;;17.15;86.20;100048.84;5079036;28;20293;-81
2024/04/08 07:37:49;;;;;;;6.37;5.77;;;;;;;17.19;86.31;100039.00;5079126;28;20216;-80
2024/04/08 07:40:16;;;;;;;8.90;8.10;;;;;;;17.23;86.76;100022.91;5078720;28;20211;-82
2024/04/08 07:42:43;;;;;;;10.87;9.87;;;;;;;17.26;86.21;100033.31;5079461;28;20208;-80
2024/04/08 07:45:09;;;;;;;11.00;10.00;;;;;;;17.30;86.07;100030.50;5079445;28;20229;-81
2024/04/08 07:47:35;;;;;;;11.23;10.20;;;;;;;17.33;85.97;100035.63;5079231;28;20233;-81
2024/04/08 07:50:02;;;;;;;9.47;8.60;;;;;;;17.38;86.53;100037.09;5078474;28;20269;-82
2024/04/08 07:52:28;;;;;;;10.27;9.47;;;;;;;17.46;86.03;100034.00;5078539;28;20208;-80
2024/04/08 07:54:53;;;;;;;10.23;9.23;;;;;;;17.54;85.91;100039.75;5077521;28;20236;-82
2024/04/08 07:57:21;;;;;;;9.87;9.07;;;;;;;17.62;86.22;100039.28;5079307;28;20670;-81
2024/04/08 07:59:47;;;;;;;11.70;10.60;;;;;;;17.69;86.04;100031.91;5080098;28;20230;-81
2024/04/08 08:02:13;;;;;;;17.20;10.00;;;;;;;17.74;85.33;100046.56;5079996;28;20207;-81
2024/04/08 08:04:38;;;;;;;10.33;9.53;;;;;;;17.80;84.70;100055.91;5080023;28;20297;-80
2024/04/08 08:07:05;;;;;;;10.43;9.40;;;;;;;17.82;84.12;100062.84;5075835;28;20552;-79
2024/04/08 08:09:31;;;;;;;10.00;9.27;;;;;;;17.83;82.88;100093.59;5075017;28;20221;-81
2024/04/08 08:11:57;;;;;;;11.13;10.33;;;;;;;17.87;83.16;100099.56;5074672;28;20208;-79
2024/04/08 08:14:25;;;;;;;11.03;10.23;;;;;;;17.89;82.94;100104.78;5074589;28;20208;-80
2024/04/08 08:16:51;;;;;;;11.43;10.53;;;;;;;17.87;84.16;100096.94;5074315;28;20277;-79
2024/04/08 08:19:18;;;;;;;12.13;10.83;;;;;;;17.89;83.98;100078.38;5074523;28;20208;-80
2024/04/08 08:21:44;;;;;;;11.77;10.87;;;;;;;17.92;83.58;100089.63;5075128;28;20562;-79
2024/04/08 08:24:10;;;;;;;11.97;10.97;;;;;;;17.92;83.26;100104.59;5074687;28;20205;-79
2024/04/08 08:26:36;;;;;;;12.30;11.30;;;;;;;17.90;83.91;100104.69;5074623;28;20281;-81
2024/04/08 08:29:03;;;;;;;11.87;10.87;;;;;;;17.96;83.47;100107.00;5074803;28;20262;-81
2024/04/08 08:31:31;;;;;;;12.00;11.00;;;;;;;17.98;84.11;100088.44;5074679;28;20216;-81
2024/04/08 08:33:57;;;;;;;11.57;10.57;;;;;;;18.02;83.15;100101.38;5074367;28;20246;-79
2024/04/08 08:36:22;;;;;;;11.80;10.80;;;;;;;18.12;83.41;100096.44;5075072;28;20236;-80
2024/04/08 08:38:49;;;;;;;12.80;11.53;;;;;;;18.19;83.35;100092.50;5074905;28;20682;-81
2024/04/08 08:41:16;;;;;;;10.30;9.50;;;;;;;18.23;83.88;100080.81;5074113;28;20216;-81
2024/04/08 08:43:45;;;;;;;11.57;10.47;;;;;;;18.28;83.27;100083.22;5074619;28;20265;-79
2024/04/08 08:46:12;;;;;;;11.03;10.13;;;;;;;18.33;83.33;100078.50;5073748;28;20223;-79
2024/04/08 08:48:40;;;;;;;11.87;10.67;;;;;;;18.38;82.00;100094.97;5073715;28;20251;-80
2024/04/08 08:51:09;;;;;;;10.80;9.80;;;;;;;18.39;81.66;100101.97;5074043;28;20212;-80
2024/04/08 08:53:35;;;;;;;11.07;10.17;;;;;;;18.38;81.38;100109.97;5077933;28;20265;-79
2024/04/08 08:56:04;;;;;;;11.53;10.53;;;;;;;18.42;81.66;100114.16;5080657;28;20640;-80
2024/04/08 08:58:29;;;;;;;12.63;11.40;;;;;;;18.43;81.79;100113.19;5081297;28;20207;-81
2024/04/08 09:00:57;;;;;;;12.20;11.20;;;;;;;18.49;81.98;100107.56;5080828;28;20266;-80
2024/04/08 09:03:27;;;;;;;11.00;10.17;;;;;;;18.52;81.68;100112.66;5080871;28;20216;-81
2024/04/08 09:05:55;;;;;;;11.07;10.17;;;;;;;18.55;81.66;100101.06;5081436;28;20304;-79
2024/04/08 09:08:21;;;;;;;11.17;10.13;;;;;;;18.56;81.89;100100.97;5081185;28;20201;-80
2024/04/08 09:10:48;;;;;;;10.53;9.73;;;;;;;18.62;81.42;100113.00;5081148;28;20310;-80
2024/04/08 09:13:18;;;;;;;11.20;10.17;;;;;;;18.59;83.17;100092.00;5081126;28;20253;-79
2024/04/08 09:15:45;;;;;;;10.53;9.77;;;;;;;18.56;84.92;100053.41;5080139;28;20238;-80
2024/04/08 09:18:10;;;;;;;10.93;10.13;;;;;;;18.60;84.98;100038.22;5081178;28;20208;-80
2024/04/08 09:20:36;;;;;;;10.47;9.53;;;;;;;18.69;84.37;100036.81;5079310;28;20211;-80
2024/04/08 09:23:04;;;;;;;11.37;10.23;;;;;;;18.75;83.67;100049.66;5080242;28;20204;-80
2024/04/08 09:25:30;;;;;;;11.33;10.47;;;;;;;18.82;80.95;100082.78;5080883;28;20220;-80
2024/04/08 09:27:56;;;;;;;11.10;10.10;;;;;;;18.87;81.04;100096.59;5080941;28;20653;-80
2024/04/08 09:30:23;;;;;;;10.70;9.90;;;;;;;18.90;81.41;100108.78;5080522;28;20209;-81
2024/04/08 09:32:48;;;;;;;10.37;9.37;;;;;;;18.99;80.76;100102.97;5080599;28;20548;-79
2024/04/08 09:35:15;;;;;;;10.60;9.70;;;;;;;19.01;80.22;100117.78;5080395;28;20278;-80
2024/04/08 09:37:41;;;;;;;10.30;9.60;;;;;;;18.99;81.42;100118.81;5081564;28;20203;-79
2024/04/08 09:40:13;;;;;;;10.10;9.27;;;;;;;19.08;81.67;100098.91;5080787;28;20257;-81
2024/04/08 09:42:40;;;;;;;10.03;9.33;;;;;;;19.18;80.89;100094.75;5080861;28;20200;-81
2024/04/08 09:45:10;;;;;;;9.63;8.83;;;;;;;19.24;81.32;100087.28;5080860;28;20259;-79
2024/04/08 09:49:15;;;;;;;9.77;8.97;;;;;;;19.36;81.23;100077.75;5545814;25;21187;-78
2024/04/08 09:51:41;;;;;;;10.00;8.97;;;;;;;19.45;80.54;100077.19;5546863;25;20219;-81
2024/04/08 09:54:10;;;;;;;9.20;8.50;;;;;;;19.50;81.76;100053.06;5546499;25;20230;-80
2024/04/08 09:56:37;;;;;;;10.13;9.23;;;;;;;19.56;81.19;100046.53;5545552;25;20266;-80
2024/04/08 09:59:08;;;;;;;9.47;8.60;;;;;;;19.58;79.98;100087.00;5546329;25;20215;-80
2024/04/08 10:01:36;;;;;;;9.10;8.43;;;;;;;19.64;79.72;100095.44;5545875;25;20218;-81
2024/04/08 10:04:08;;;;;;;10.77;9.50;;;;;;;19.62;82.36;100057.63;5545965;25;20211;-80
2024/04/08 10:06:37;;;;;;;10.27;8.93;;;;;;;19.68;81.67;100039.63;5546439;25;20223;-82
2024/04/08 10:09:06;;;;;;;9.87;8.83;;;;;;;19.75;83.55;100017.16;5546016;25;20262;-80
2024/04/08 10:11:31;;;;;;;9.77;8.87;;;;;;;19.79;83.89;99982.41;5545906;25;20249;-80
2024/04/08 10:13:59;;;;;;;10.13;9.27;;;;;;;19.86;84.76;99967.00;5545464;25;20713;-80
2024/04/08 10:16:25;;;;;;;8.07;7.40;;;;;;;19.96;81.81;99991.06;5547065;25;20230;-82
2024/04/08 10:18:57;;;;;;;8.67;7.77;;;;;;;20.05;79.52;100040.81;5546983;25;20227;-83
2024/04/08 10:21:26;;;;;;;9.27;8.33;;;;;;;20.09;78.99;100081.22;5539780;25;20246;-81
2024/04/08 10:23:58;;;;;;;8.50;7.77;;;;;;;20.14;78.53;100087.91;5546324;25;20262;-81
2024/04/08 10:26:25;;;;;;;7.80;7.30;;;;;;;20.18;79.53;100072.69;5545794;25;20707;-80
2024/04/08 10:28:54;;;;;;;8.20;7.50;;;;;;;20.23;78.50;100087.31;5559678;21;20304;-81
2024/04/08 10:31:20;;;;;;;7.93;7.27;;;;;;;20.21;81.12;100072.47;5425909;26;20283;-81
2024/04/08 10:33:48;;;;;;;8.10;7.43;;;;;;;20.27;81.40;100036.75;5412983;26;20339;-81
2024/04/08 10:36:13;;;;;;;8.17;7.47;;;;;;;20.33;82.55;100004.53;5407730;26;20278;-81
2024/04/08 10:38:41;;;;;;;7.50;6.90;;;;;;;20.35;82.17;100002.63;5404798;26;20239;-81
2024/04/08 10:41:09;;;;;;;13.03;7.43;;;;;;;20.39;80.03;100028.81;5406606;26;20235;-80
2024/04/08 10:43:38;;;;;;;7.93;7.20;;;;;;;20.48;82.59;99998.22;5410458;26;20315;-80
2024/04/08 10:46:04;;;;;;;8.93;7.97;;;;;;;20.56;79.78;100043.63;5408146;26;20309;-81
2024/04/08 10:48:33;;;;;;;7.77;6.97;;;;;;;20.55;80.30;100044.56;5435717;26;20286;-83
2024/04/08 10:50:59;;;;;;;8.63;7.83;;;;;;;20.61;80.66;100046.88;5444139;26;20290;-82
2024/04/08 10:53:27;;;;;;;8.83;7.83;;;;;;;20.75;78.37;100072.47;5443086;26;20230;-81
2024/04/08 10:55:54;;;;;;;8.37;7.67;;;;;;;20.81;80.90;100068.50;5442092;26;20230;-81
2024/04/08 10:58:24;;;;;;;10.30;7.03;;;;;;;20.95;80.13;100046.34;5437652;26;20566;-82
2024/04/08 11:00:50;;;;;;;9.00;7.60;;;;;;;21.06;81.22;100022.59;5421629;26;20277;-80
2024/04/08 11:03:18;;;;;;;10.20;7.20;;;;;;;21.14;76.47;100101.69;5427880;26;20235;-80
2024/04/08 11:05:44;;;;;;;8.97;7.53;;;;;;;21.16;77.62;100097.97;5425360;26;20227;-79
2024/04/08 11:08:16;;;;;;;8.00;7.40;;;;;;;21.28;76.58;100141.41;5425345;26;20273;-81
2024/04/08 11:10:43;;;;;;;8.73;7.93;;;;;;;21.38;77.64;100105.28;5421883;26;20263;-80
2024/04/08 11:13:12;;;;;;;8.20;7.53;;;;;;;21.50;75.10;100142.63;5384548;26;20240;-80
2024/04/08 11:15:47;;;;;;;8.93;8.13;;;;;;;21.41;75.62;100168.81;5383852;26;20356;-79
2024/04/08 11:18:26;;;;;;;8.20;7.40;;;;;;;21.68;77.02;100133.34;5384592;26;20240;-79
2024/04/08 11:20:52;;;;;;;8.50;7.80;;;;;;;21.86;77.17;100122.38;5385654;26;20573;-82
2024/04/08 11:23:20;;;;;;;8.93;8.23;;;;;;;22.09;77.09;100110.13;5387215;26;20231;-83